sensor_id;sensor_type;location;lat;lon;timestamp;P1;durP1;ratioP1;P2;durP2;ratioP2
43756;SDS011;73222;41.866;12.462;2023-12-07T00:00:29;23.63;;;13.50;;
43756;SDS011;73222;41.866;12.462;2023-12-07T00:02:54;24.83;;;13.85;;
43756;SDS011;73222;41.866;12.462;2023-12-07T00:05:19;22.58;;;12.20;;
43756;SDS011;73222;41.866;12.462;2023-12-07T00:07:45;24.88;;;12.93;;
43756;SDS011;73222;41.866;12.462;2023-12-07T00:10:10;19.00;;;11.73;;
43756;SDS011;73222;41.866;12.462;2023-12-07T00:12:35;24.42;;;12.57;;
43756;SDS011;73222;41.866;12.462;2023-12-07T00:15:01;22.10;;;12.13;;
43756;SDS011;73222;41.866;12.462;2023-12-07T00:17:27;25.42;;;12.85;;
43756;SDS011;73222;41.866;12.462;2023-12-07T00:19:53;26.80;;;13.52;;
43756;SDS011;73222;41.866;12.462;2023-12-07T00:22:19;25.98;;;13.60;;
43756;SDS011;73222;41.866;12.462;2023-12-07T00:24:45;29.17;;;14.50;;
43756;SDS011;73222;41.866;12.462;2023-12-07T00:27:10;24.42;;;13.52;;
43756;SDS011;73222;41.866;12.462;2023-12-07T00:29:39;25.00;;;13.80;;
43756;SDS011;73222;41.866;12.462;2023-12-07T00:32:04;23.77;;;13.15;;
43756;SDS011;73222;41.866;12.462;2023-12-07T00:34:30;30.33;;;14.80;;
43756;SDS011;73222;41.866;12.462;2023-12-07T00:36:55;28.48;;;13.63;;
43756;SDS011;73222;41.866;12.462;2023-12-07T00:39:20;28.35;;;15.30;;
43756;SDS011;73222;41.866;12.462;2023-12-07T00:41:46;26.02;;;14.23;;
43756;SDS011;73222;41.866;12.462;2023-12-07T00:44:12;26.65;;;15.45;;
43756;SDS011;73222;41.866;12.462;2023-12-07T00:46:41;29.55;;;15.48;;
43756;SDS011;73222;41.866;12.462;2023-12-07T00:49:06;28.23;;;14.98;;
43756;SDS011;73222;41.866;12.462;2023-12-07T00:51:31;27.13;;;14.85;;
43756;SDS011;73222;41.866;12.462;2023-12-07T00:53:57;27.83;;;14.88;;
43756;SDS011;73222;41.866;12.462;2023-12-07T00:56:23;27.35;;;14.88;;
43756;SDS011;73222;41.866;12.462;2023-12-07T00:58:49;27.60;;;14.23;;
43756;SDS011;73222;41.866;12.462;2023-12-07T01:01:14;27.90;;;14.60;;
43756;SDS011;73222;41.866;12.462;2023-12-07T01:03:40;27.67;;;15.18;;
43756;SDS011;73222;41.866;12.462;2023-12-07T01:06:05;27.38;;;14.57;;
43756;SDS011;73222;41.866;12.462;2023-12-07T01:08:31;27.42;;;14.40;;
43756;SDS011;73222;41.866;12.462;2023-12-07T01:10:56;28.65;;;15.68;;
43756;SDS011;73222;41.866;12.462;2023-12-07T01:13:22;29.05;;;15.30;;
43756;SDS011;73222;41.866;12.462;2023-12-07T01:15:48;31.13;;;14.77;;
43756;SDS011;73222;41.866;12.462;2023-12-07T01:18:14;28.75;;;14.70;;
43756;SDS011;73222;41.866;12.462;2023-12-07T01:20:40;30.73;;;16.58;;
43756;SDS011;73222;41.866;12.462;2023-12-07T01:23:05;32.35;;;15.75;;
43756;SDS011;73222;41.866;12.462;2023-12-07T01:25:31;30.00;;;14.77;;
43756;SDS011;73222;41.866;12.462;2023-12-07T01:27:56;28.75;;;15.55;;
43756;SDS011;73222;41.866;12.462;2023-12-07T01:30:22;27.35;;;14.88;;
43756;SDS011;73222;41.866;12.462;2023-12-07T01:32:47;28.08;;;15.50;;
43756;SDS011;73222;41.866;12.462;2023-12-07T01:35:12;28.73;;;15.23;;
43756;SDS011;73222;41.866;12.462;2023-12-07T01:37:38;28.88;;;15.82;;
43756;SDS011;73222;41.866;12.462;2023-12-07T01:40:03;32.97;;;15.68;;
43756;SDS011;73222;41.866;12.462;2023-12-07T01:42:34;31.48;;;16.63;;
43756;SDS011;73222;41.866;12.462;2023-12-07T01:45:00;31.95;;;16.00;;
43756;SDS011;73222;41.866;12.462;2023-12-07T01:47:25;31.83;;;14.70;;
43756;SDS011;73222;41.866;12.462;2023-12-07T01:49:51;28.27;;;15.35;;
43756;SDS011;73222;41.866;12.462;2023-12-07T01:52:17;30.98;;;15.82;;
43756;SDS011;73222;41.866;12.462;2023-12-07T01:54:44;30.15;;;16.20;;
43756;SDS011;73222;41.866;12.462;2023-12-07T01:57:09;30.70;;;16.25;;
43756;SDS011;73222;41.866;12.462;2023-12-07T01:59:35;27.38;;;15.15;;
43756;SDS011;73222;41.866;12.462;2023-12-07T02:02:00;29.95;;;16.52;;
43756;SDS011;73222;41.866;12.462;2023-12-07T02:04:26;23.77;;;14.38;;
43756;SDS011;73222;41.866;12.462;2023-12-07T02:06:52;33.38;;;16.00;;
43756;SDS011;73222;41.866;12.462;2023-12-07T02:09:22;28.48;;;15.05;;
43756;SDS011;73222;41.866;12.462;2023-12-07T02:11:47;27.83;;;15.48;;
43756;SDS011;73222;41.866;12.462;2023-12-07T02:14:12;29.83;;;15.13;;
43756;SDS011;73222;41.866;12.462;2023-12-07T02:16:48;29.38;;;14.73;;
43756;SDS011;73222;41.866;12.462;2023-12-07T02:19:27;28.42;;;14.15;;
43756;SDS011;73222;41.866;12.462;2023-12-07T02:22:22;29.92;;;16.13;;
43756;SDS011;73222;41.866;12.462;2023-12-07T02:25:01;28.25;;;14.95;;
43756;SDS011;73222;41.866;12.462;2023-12-07T02:27:39;25.60;;;14.10;;
43756;SDS011;73222;41.866;12.462;2023-12-07T02:30:07;25.80;;;14.02;;
43756;SDS011;73222;41.866;12.462;2023-12-07T02:32:33;27.27;;;14.70;;
43756;SDS011;73222;41.866;12.462;2023-12-07T02:35:00;30.17;;;14.90;;
43756;SDS011;73222;41.866;12.462;2023-12-07T02:37:27;26.88;;;14.82;;
43756;SDS011;73222;41.866;12.462;2023-12-07T02:39:54;26.80;;;13.43;;
43756;SDS011;73222;41.866;12.462;2023-12-07T02:42:21;28.13;;;14.02;;
43756;SDS011;73222;41.866;12.462;2023-12-07T02:44:48;28.35;;;14.82;;
43756;SDS011;73222;41.866;12.462;2023-12-07T02:47:15;27.60;;;14.98;;
43756;SDS011;73222;41.866;12.462;2023-12-07T02:49:40;27.67;;;14.10;;
43756;SDS011;73222;41.866;12.462;2023-12-07T02:52:05;33.33;;;14.38;;
43756;SDS011;73222;41.866;12.462;2023-12-07T02:54:31;25.23;;;13.52;;
43756;SDS011;73222;41.866;12.462;2023-12-07T02:56:56;26.60;;;14.13;;
43756;SDS011;73222;41.866;12.462;2023-12-07T02:59:22;27.35;;;14.73;;
43756;SDS011;73222;41.866;12.462;2023-12-07T03:01:47;30.20;;;16.27;;
43756;SDS011;73222;41.866;12.462;2023-12-07T03:04:12;29.40;;;16.42;;
43756;SDS011;73222;41.866;12.462;2023-12-07T03:06:38;27.17;;;14.82;;
43756;SDS011;73222;41.866;12.462;2023-12-07T03:09:03;27.30;;;14.48;;
43756;SDS011;73222;41.866;12.462;2023-12-07T03:11:28;29.83;;;16.08;;
43756;SDS011;73222;41.866;12.462;2023-12-07T03:13:54;24.88;;;14.77;;
43756;SDS011;73222;41.866;12.462;2023-12-07T03:16:19;28.42;;;14.50;;
43756;SDS011;73222;41.866;12.462;2023-12-07T03:18:45;27.00;;;14.00;;
43756;SDS011;73222;41.866;12.462;2023-12-07T03:21:11;26.48;;;14.00;;
43756;SDS011;73222;41.866;12.462;2023-12-07T03:23:37;30.63;;;15.02;;
43756;SDS011;73222;41.866;12.462;2023-12-07T03:26:02;27.60;;;15.27;;
43756;SDS011;73222;41.866;12.462;2023-12-07T03:28:28;27.80;;;14.73;;
43756;SDS011;73222;41.866;12.462;2023-12-07T03:30:53;27.50;;;14.55;;
43756;SDS011;73222;41.866;12.462;2023-12-07T03:33:19;28.85;;;16.23;;
43756;SDS011;73222;41.866;12.462;2023-12-07T03:35:44;29.65;;;15.15;;
43756;SDS011;73222;41.866;12.462;2023-12-07T03:38:09;29.77;;;15.10;;
43756;SDS011;73222;41.866;12.462;2023-12-07T03:40:35;29.45;;;15.70;;
43756;SDS011;73222;41.866;12.462;2023-12-07T03:43:00;27.50;;;15.23;;
43756;SDS011;73222;41.866;12.462;2023-12-07T03:45:28;26.77;;;14.63;;
43756;SDS011;73222;41.866;12.462;2023-12-07T03:47:53;29.00;;;15.38;;
43756;SDS011;73222;41.866;12.462;2023-12-07T03:50:19;26.52;;;14.07;;
43756;SDS011;73222;41.866;12.462;2023-12-07T03:52:44;29.95;;;14.52;;
43756;SDS011;73222;41.866;12.462;2023-12-07T03:55:09;26.92;;;15.40;;
43756;SDS011;73222;41.866;12.462;2023-12-07T03:57:35;33.92;;;16.00;;
43756;SDS011;73222;41.866;12.462;2023-12-07T04:00:01;26.33;;;14.15;;
43756;SDS011;73222;41.866;12.462;2023-12-07T04:02:29;30.35;;;15.70;;
43756;SDS011;73222;41.866;12.462;2023-12-07T04:04:58;31.27;;;14.88;;
43756;SDS011;73222;41.866;12.462;2023-12-07T04:07:26;25.83;;;14.57;;
43756;SDS011;73222;41.866;12.462;2023-12-07T04:09:53;28.45;;;16.38;;
43756;SDS011;73222;41.866;12.462;2023-12-07T04:12:19;38.45;;;15.43;;
43756;SDS011;73222;41.866;12.462;2023-12-07T04:14:44;27.48;;;13.60;;
43756;SDS011;73222;41.866;12.462;2023-12-07T04:17:10;28.20;;;13.85;;
43756;SDS011;73222;41.866;12.462;2023-12-07T04:19:35;24.98;;;13.18;;
43756;SDS011;73222;41.866;12.462;2023-12-07T04:22:01;31.48;;;14.75;;
43756;SDS011;73222;41.866;12.462;2023-12-07T04:24:26;27.55;;;13.95;;
43756;SDS011;73222;41.866;12.462;2023-12-07T04:26:51;25.00;;;13.88;;
43756;SDS011;73222;41.866;12.462;2023-12-07T04:29:17;27.67;;;13.77;;
43756;SDS011;73222;41.866;12.462;2023-12-07T04:31:42;30.95;;;15.20;;
43756;SDS011;73222;41.866;12.462;2023-12-07T04:34:08;29.25;;;14.48;;
43756;SDS011;73222;41.866;12.462;2023-12-07T04:36:33;24.02;;;13.10;;
43756;SDS011;73222;41.866;12.462;2023-12-07T04:38:59;26.75;;;13.68;;
43756;SDS011;73222;41.866;12.462;2023-12-07T04:41:24;22.98;;;12.93;;
43756;SDS011;73222;41.866;12.462;2023-12-07T04:43:49;28.58;;;13.93;;
43756;SDS011;73222;41.866;12.462;2023-12-07T04:46:15;25.25;;;13.57;;
43756;SDS011;73222;41.866;12.462;2023-12-07T04:48:40;25.58;;;13.18;;
43756;SDS011;73222;41.866;12.462;2023-12-07T04:51:06;23.98;;;13.52;;
43756;SDS011;73222;41.866;12.462;2023-12-07T04:53:31;26.88;;;13.98;;
43756;SDS011;73222;41.866;12.462;2023-12-07T04:55:56;23.35;;;12.80;;
43756;SDS011;73222;41.866;12.462;2023-12-07T04:58:22;24.08;;;12.82;;
43756;SDS011;73222;41.866;12.462;2023-12-07T05:00:47;25.80;;;13.25;;
43756;SDS011;73222;41.866;12.462;2023-12-07T05:03:13;25.75;;;13.18;;
43756;SDS011;73222;41.866;12.462;2023-12-07T05:05:39;25.83;;;13.52;;
43756;SDS011;73222;41.866;12.462;2023-12-07T05:08:04;23.77;;;12.77;;
43756;SDS011;73222;41.866;12.462;2023-12-07T05:10:29;23.05;;;13.18;;
43756;SDS011;73222;41.866;12.462;2023-12-07T05:12:55;29.83;;;12.93;;
43756;SDS011;73222;41.866;12.462;2023-12-07T05:15:21;25.45;;;13.85;;
43756;SDS011;73222;41.866;12.462;2023-12-07T05:17:47;27.83;;;13.65;;
43756;SDS011;73222;41.866;12.462;2023-12-07T05:20:12;26.90;;;13.45;;
43756;SDS011;73222;41.866;12.462;2023-12-07T05:22:38;26.63;;;12.60;;
43756;SDS011;73222;41.866;12.462;2023-12-07T05:25:03;25.88;;;13.55;;
43756;SDS011;73222;41.866;12.462;2023-12-07T05:27:29;24.65;;;13.05;;
43756;SDS011;73222;41.866;12.462;2023-12-07T05:29:55;25.48;;;12.80;;
43756;SDS011;73222;41.866;12.462;2023-12-07T05:32:21;29.02;;;13.80;;
43756;SDS011;73222;41.866;12.462;2023-12-07T05:34:47;23.33;;;12.75;;
43756;SDS011;73222;41.866;12.462;2023-12-07T05:37:12;24.33;;;13.00;;
43756;SDS011;73222;41.866;12.462;2023-12-07T05:39:38;25.30;;;13.55;;
43756;SDS011;73222;41.866;12.462;2023-12-07T05:42:03;32.17;;;13.90;;
43756;SDS011;73222;41.866;12.462;2023-12-07T05:44:29;26.73;;;13.60;;
43756;SDS011;73222;41.866;12.462;2023-12-07T05:46:55;26.77;;;12.60;;
43756;SDS011;73222;41.866;12.462;2023-12-07T05:49:22;23.70;;;12.23;;
43756;SDS011;73222;41.866;12.462;2023-12-07T05:51:48;31.98;;;13.88;;
43756;SDS011;73222;41.866;12.462;2023-12-07T05:54:14;28.65;;;13.15;;
43756;SDS011;73222;41.866;12.462;2023-12-07T05:56:39;27.13;;;13.48;;
43756;SDS011;73222;41.866;12.462;2023-12-07T05:59:05;22.60;;;12.63;;
43756;SDS011;73222;41.866;12.462;2023-12-07T06:01:31;26.02;;;12.38;;
43756;SDS011;73222;41.866;12.462;2023-12-07T06:03:57;25.42;;;12.80;;
43756;SDS011;73222;41.866;12.462;2023-12-07T06:06:23;29.67;;;13.55;;
43756;SDS011;73222;41.866;12.462;2023-12-07T06:08:48;26.80;;;12.43;;
43756;SDS011;73222;41.866;12.462;2023-12-07T06:11:14;25.70;;;13.02;;
43756;SDS011;73222;41.866;12.462;2023-12-07T06:13:39;24.00;;;12.75;;
43756;SDS011;73222;41.866;12.462;2023-12-07T06:16:05;26.17;;;13.40;;
43756;SDS011;73222;41.866;12.462;2023-12-07T06:18:31;26.88;;;13.02;;
43756;SDS011;73222;41.866;12.462;2023-12-07T06:20:56;27.45;;;12.68;;
43756;SDS011;73222;41.866;12.462;2023-12-07T06:23:21;23.42;;;11.68;;
43756;SDS011;73222;41.866;12.462;2023-12-07T06:25:47;27.52;;;13.32;;
43756;SDS011;73222;41.866;12.462;2023-12-07T06:28:12;23.98;;;12.45;;
43756;SDS011;73222;41.866;12.462;2023-12-07T06:30:38;26.00;;;12.73;;
43756;SDS011;73222;41.866;12.462;2023-12-07T06:33:04;25.05;;;13.40;;
43756;SDS011;73222;41.866;12.462;2023-12-07T06:35:29;24.58;;;12.75;;
43756;SDS011;73222;41.866;12.462;2023-12-07T06:37:55;28.33;;;12.68;;
43756;SDS011;73222;41.866;12.462;2023-12-07T06:40:21;24.50;;;13.18;;
43756;SDS011;73222;41.866;12.462;2023-12-07T06:42:46;27.08;;;11.90;;
43756;SDS011;73222;41.866;12.462;2023-12-07T06:45:13;26.98;;;13.77;;
43756;SDS011;73222;41.866;12.462;2023-12-07T06:47:42;24.70;;;12.90;;
43756;SDS011;73222;41.866;12.462;2023-12-07T06:50:08;27.05;;;13.02;;
43756;SDS011;73222;41.866;12.462;2023-12-07T06:52:37;24.17;;;13.35;;
43756;SDS011;73222;41.866;12.462;2023-12-07T06:55:02;24.98;;;12.32;;
43756;SDS011;73222;41.866;12.462;2023-12-07T06:58:31;23.40;;;12.27;;
43756;SDS011;73222;41.866;12.462;2023-12-07T07:00:57;21.90;;;12.13;;
43756;SDS011;73222;41.866;12.462;2023-12-07T07:03:22;29.85;;;13.40;;
43756;SDS011;73222;41.866;12.462;2023-12-07T07:05:48;27.92;;;12.77;;
43756;SDS011;73222;41.866;12.462;2023-12-07T07:08:13;25.15;;;11.82;;
43756;SDS011;73222;41.866;12.462;2023-12-07T07:10:38;21.55;;;12.50;;
43756;SDS011;73222;41.866;12.462;2023-12-07T07:13:04;24.88;;;12.40;;
43756;SDS011;73222;41.866;12.462;2023-12-07T07:15:32;25.35;;;12.90;;
43756;SDS011;73222;41.866;12.462;2023-12-07T07:17:58;24.13;;;11.98;;
43756;SDS011;73222;41.866;12.462;2023-12-07T07:20:23;20.77;;;12.05;;
43756;SDS011;73222;41.866;12.462;2023-12-07T07:22:49;23.38;;;12.20;;
43756;SDS011;73222;41.866;12.462;2023-12-07T07:25:15;23.42;;;12.57;;
43756;SDS011;73222;41.866;12.462;2023-12-07T07:27:41;26.88;;;11.85;;
43756;SDS011;73222;41.866;12.462;2023-12-07T07:30:07;20.15;;;10.43;;
43756;SDS011;73222;41.866;12.462;2023-12-07T07:32:33;19.02;;;11.10;;
43756;SDS011;73222;41.866;12.462;2023-12-07T07:34:59;21.80;;;12.20;;
43756;SDS011;73222;41.866;12.462;2023-12-07T07:37:24;18.10;;;10.32;;
43756;SDS011;73222;41.866;12.462;2023-12-07T07:39:49;14.32;;;9.38;;
43756;SDS011;73222;41.866;12.462;2023-12-07T07:42:18;21.13;;;10.93;;
43756;SDS011;73222;41.866;12.462;2023-12-07T07:44:43;22.92;;;10.57;;
43756;SDS011;73222;41.866;12.462;2023-12-07T07:47:08;16.55;;;11.27;;
43756;SDS011;73222;41.866;12.462;2023-12-07T07:49:34;17.25;;;10.85;;
43756;SDS011;73222;41.866;12.462;2023-12-07T07:51:59;19.20;;;11.25;;
43756;SDS011;73222;41.866;12.462;2023-12-07T07:54:25;19.42;;;11.88;;
43756;SDS011;73222;41.866;12.462;2023-12-07T07:56:51;19.58;;;11.88;;
43756;SDS011;73222;41.866;12.462;2023-12-07T07:59:16;18.08;;;10.80;;
43756;SDS011;73222;41.866;12.462;2023-12-07T08:01:41;20.17;;;12.02;;
43756;SDS011;73222;41.866;12.462;2023-12-07T08:04:07;19.13;;;11.40;;
43756;SDS011;73222;41.866;12.462;2023-12-07T08:06:32;18.95;;;11.48;;
43756;SDS011;73222;41.866;12.462;2023-12-07T08:08:59;16.25;;;11.27;;
43756;SDS011;73222;41.866;12.462;2023-12-07T08:11:24;17.23;;;11.50;;
43756;SDS011;73222;41.866;12.462;2023-12-07T08:13:50;20.55;;;11.57;;
43756;SDS011;73222;41.866;12.462;2023-12-07T08:16:15;16.48;;;11.43;;
43756;SDS011;73222;41.866;12.462;2023-12-07T08:18:41;15.88;;;10.80;;
43756;SDS011;73222;41.866;12.462;2023-12-07T08:21:06;16.20;;;11.63;;
43756;SDS011;73222;41.866;12.462;2023-12-07T08:23:33;19.77;;;12.27;;
43756;SDS011;73222;41.866;12.462;2023-12-07T08:26:00;16.98;;;12.60;;
43756;SDS011;73222;41.866;12.462;2023-12-07T08:28:26;14.23;;;11.45;;
43756;SDS011;73222;41.866;12.462;2023-12-07T08:30:51;18.13;;;11.93;;
43756;SDS011;73222;41.866;12.462;2023-12-07T08:33:17;16.80;;;11.73;;
43756;SDS011;73222;41.866;12.462;2023-12-07T08:35:42;17.60;;;12.43;;
43756;SDS011;73222;41.866;12.462;2023-12-07T08:38:07;17.08;;;12.32;;
43756;SDS011;73222;41.866;12.462;2023-12-07T08:40:33;18.23;;;12.02;;
43756;SDS011;73222;41.866;12.462;2023-12-07T08:42:58;16.05;;;11.43;;
43756;SDS011;73222;41.866;12.462;2023-12-07T08:45:24;16.35;;;12.10;;
43756;SDS011;73222;41.866;12.462;2023-12-07T08:47:49;19.08;;;13.23;;
43756;SDS011;73222;41.866;12.462;2023-12-07T08:50:14;18.73;;;12.38;;
43756;SDS011;73222;41.866;12.462;2023-12-07T08:52:40;16.95;;;11.43;;
43756;SDS011;73222;41.866;12.462;2023-12-07T08:55:05;16.20;;;12.20;;
43756;SDS011;73222;41.866;12.462;2023-12-07T08:57:31;15.35;;;12.18;;
43756;SDS011;73222;41.866;12.462;2023-12-07T08:59:56;15.32;;;11.40;;
43756;SDS011;73222;41.866;12.462;2023-12-07T09:02:22;15.57;;;12.35;;
43756;SDS011;73222;41.866;12.462;2023-12-07T09:04:48;18.65;;;12.07;;
43756;SDS011;73222;41.866;12.462;2023-12-07T09:07:16;23.50;;;12.45;;
43756;SDS011;73222;41.866;12.462;2023-12-07T09:09:42;19.40;;;12.55;;
43756;SDS011;73222;41.866;12.462;2023-12-07T09:12:12;14.73;;;12.07;;
43756;SDS011;73222;41.866;12.462;2023-12-07T09:14:38;16.33;;;12.65;;
43756;SDS011;73222;41.866;12.462;2023-12-07T09:17:03;14.38;;;11.35;;
43756;SDS011;73222;41.866;12.462;2023-12-07T09:19:28;16.40;;;11.73;;
43756;SDS011;73222;41.866;12.462;2023-12-07T09:21:54;18.10;;;12.93;;
43756;SDS011;73222;41.866;12.462;2023-12-07T09:24:19;14.35;;;12.10;;
43756;SDS011;73222;41.866;12.462;2023-12-07T09:26:45;18.05;;;13.27;;
43756;SDS011;73222;41.866;12.462;2023-12-07T09:29:10;15.43;;;12.80;;
43756;SDS011;73222;41.866;12.462;2023-12-07T09:31:35;28.20;;;13.85;;
43756;SDS011;73222;41.866;12.462;2023-12-07T09:34:01;18.45;;;12.20;;
43756;SDS011;73222;41.866;12.462;2023-12-07T09:36:26;15.98;;;11.60;;
43756;SDS011;73222;41.866;12.462;2023-12-07T09:38:53;16.15;;;11.82;;
43756;SDS011;73222;41.866;12.462;2023-12-07T09:41:18;16.77;;;11.40;;
43756;SDS011;73222;41.866;12.462;2023-12-07T09:43:45;16.75;;;11.45;;
43756;SDS011;73222;41.866;12.462;2023-12-07T09:46:10;16.10;;;11.38;;
43756;SDS011;73222;41.866;12.462;2023-12-07T09:48:37;14.38;;;10.45;;
43756;SDS011;73222;41.866;12.462;2023-12-07T09:51:06;13.35;;;10.18;;
43756;SDS011;73222;41.866;12.462;2023-12-07T09:53:32;24.50;;;12.68;;
43756;SDS011;73222;41.866;12.462;2023-12-07T09:55:59;14.55;;;10.60;;
43756;SDS011;73222;41.866;12.462;2023-12-07T09:58:25;15.40;;;11.15;;
43756;SDS011;73222;41.866;12.462;2023-12-07T10:00:51;13.95;;;11.60;;
43756;SDS011;73222;41.866;12.462;2023-12-07T10:03:23;13.82;;;10.25;;
43756;SDS011;73222;41.866;12.462;2023-12-07T10:05:55;12.55;;;10.30;;
43756;SDS011;73222;41.866;12.462;2023-12-07T10:08:40;14.02;;;10.32;;
43756;SDS011;73222;41.866;12.462;2023-12-07T10:11:09;13.60;;;11.10;;
43756;SDS011;73222;41.866;12.462;2023-12-07T10:13:37;13.30;;;10.63;;
43756;SDS011;73222;41.866;12.462;2023-12-07T10:18:39;14.68;;;10.98;;
43756;SDS011;73222;41.866;12.462;2023-12-07T10:21:06;22.98;;;11.23;;
43756;SDS011;73222;41.866;12.462;2023-12-07T10:23:33;14.07;;;10.85;;
43756;SDS011;73222;41.866;12.462;2023-12-07T10:25:58;13.25;;;10.57;;
43756;SDS011;73222;41.866;12.462;2023-12-07T10:28:27;11.65;;;9.40;;
43756;SDS011;73222;41.866;12.462;2023-12-07T10:30:52;15.35;;;10.20;;
43756;SDS011;73222;41.866;12.462;2023-12-07T10:33:19;14.90;;;10.85;;
43756;SDS011;73222;41.866;12.462;2023-12-07T10:35:44;13.45;;;9.43;;
43756;SDS011;73222;41.866;12.462;2023-12-07T10:38:10;12.63;;;10.60;;
43756;SDS011;73222;41.866;12.462;2023-12-07T10:40:35;13.70;;;10.18;;
43756;SDS011;73222;41.866;12.462;2023-12-07T10:43:03;12.25;;;9.80;;
43756;SDS011;73222;41.866;12.462;2023-12-07T10:45:30;14.40;;;10.35;;
43756;SDS011;73222;41.866;12.462;2023-12-07T10:48:06;12.65;;;9.63;;
43756;SDS011;73222;41.866;12.462;2023-12-07T10:50:41;13.95;;;10.55;;
43756;SDS011;73222;41.866;12.462;2023-12-07T10:53:10;12.93;;;9.77;;
43756;SDS011;73222;41.866;12.462;2023-12-07T10:55:47;11.90;;;9.98;;
43756;SDS011;73222;41.866;12.462;2023-12-07T10:58:17;12.05;;;10.05;;
43756;SDS011;73222;41.866;12.462;2023-12-07T11:00:46;10.35;;;8.95;;
43756;SDS011;73222;41.866;12.462;2023-12-07T11:03:15;10.90;;;9.07;;
43756;SDS011;73222;41.866;12.462;2023-12-07T11:05:45;11.88;;;9.32;;
43756;SDS011;73222;41.866;12.462;2023-12-07T11:08:15;12.90;;;9.45;;
43756;SDS011;73222;41.866;12.462;2023-12-07T11:14:02;10.98;;;8.60;;
43756;SDS011;73222;41.866;12.462;2023-12-07T11:16:30;21.70;;;8.95;;
43756;SDS011;73222;41.866;12.462;2023-12-07T11:18:56;14.30;;;7.82;;
43756;SDS011;73222;41.866;12.462;2023-12-07T11:21:23;10.90;;;8.10;;
43756;SDS011;73222;41.866;12.462;2023-12-07T11:23:48;15.20;;;7.78;;
43756;SDS011;73222;41.866;12.462;2023-12-07T11:26:14;12.15;;;8.13;;
43756;SDS011;73222;41.866;12.462;2023-12-07T11:28:39;10.93;;;8.57;;
43756;SDS011;73222;41.866;12.462;2023-12-07T11:31:08;20.83;;;8.80;;
43756;SDS011;73222;41.866;12.462;2023-12-07T11:33:34;10.10;;;7.72;;
43756;SDS011;73222;41.866;12.462;2023-12-07T11:38:27;12.07;;;7.97;;
43756;SDS011;73222;41.866;12.462;2023-12-07T11:40:53;15.10;;;8.77;;
43756;SDS011;73222;41.866;12.462;2023-12-07T11:45:58;10.35;;;7.93;;
43756;SDS011;73222;41.866;12.462;2023-12-07T11:48:24;9.98;;;8.43;;
43756;SDS011;73222;41.866;12.462;2023-12-07T11:50:56;13.25;;;8.05;;
43756;SDS011;73222;41.866;12.462;2023-12-07T11:53:22;9.45;;;7.82;;
43756;SDS011;73222;41.866;12.462;2023-12-07T11:55:49;11.38;;;8.43;;
43756;SDS011;73222;41.866;12.462;2023-12-07T11:58:15;9.88;;;8.85;;
43756;SDS011;73222;41.866;12.462;2023-12-07T12:00:41;12.32;;;8.95;;
43756;SDS011;73222;41.866;12.462;2023-12-07T12:03:06;10.00;;;8.18;;
43756;SDS011;73222;41.866;12.462;2023-12-07T12:05:32;10.57;;;7.63;;
43756;SDS011;73222;41.866;12.462;2023-12-07T12:07:57;12.02;;;7.88;;
43756;SDS011;73222;41.866;12.462;2023-12-07T12:10:22;11.13;;;8.52;;
43756;SDS011;73222;41.866;12.462;2023-12-07T12:12:50;10.88;;;8.20;;
43756;SDS011;73222;41.866;12.462;2023-12-07T12:15:16;11.93;;;8.68;;
43756;SDS011;73222;41.866;12.462;2023-12-07T12:17:42;12.32;;;7.70;;
43756;SDS011;73222;41.866;12.462;2023-12-07T12:20:08;12.93;;;8.85;;
43756;SDS011;73222;41.866;12.462;2023-12-07T12:25:01;10.57;;;8.57;;
43756;SDS011;73222;41.866;12.462;2023-12-07T12:27:27;11.77;;;8.93;;
43756;SDS011;73222;41.866;12.462;2023-12-07T12:29:53;12.50;;;8.55;;
43756;SDS011;73222;41.866;12.462;2023-12-07T12:32:19;10.80;;;8.27;;
43756;SDS011;73222;41.866;12.462;2023-12-07T12:34:50;11.15;;;7.85;;
43756;SDS011;73222;41.866;12.462;2023-12-07T12:37:16;9.88;;;7.63;;
43756;SDS011;73222;41.866;12.462;2023-12-07T12:39:42;10.25;;;8.35;;
43756;SDS011;73222;41.866;12.462;2023-12-07T12:42:07;11.80;;;8.88;;
43756;SDS011;73222;41.866;12.462;2023-12-07T12:44:35;10.82;;;7.88;;
43756;SDS011;73222;41.866;12.462;2023-12-07T12:47:01;10.35;;;8.20;;
43756;SDS011;73222;41.866;12.462;2023-12-07T12:49:36;12.13;;;8.32;;
43756;SDS011;73222;41.866;12.462;2023-12-07T12:52:02;9.90;;;8.20;;
43756;SDS011;73222;41.866;12.462;2023-12-07T12:54:30;10.15;;;7.90;;
43756;SDS011;73222;41.866;12.462;2023-12-07T12:56:59;11.00;;;8.10;;
43756;SDS011;73222;41.866;12.462;2023-12-07T12:59:24;12.20;;;8.23;;
43756;SDS011;73222;41.866;12.462;2023-12-07T13:01:50;9.05;;;7.35;;
43756;SDS011;73222;41.866;12.462;2023-12-07T13:04:16;11.85;;;7.68;;
43756;SDS011;73222;41.866;12.462;2023-12-07T13:06:41;9.55;;;7.38;;
43756;SDS011;73222;41.866;12.462;2023-12-07T13:09:06;8.63;;;7.22;;
43756;SDS011;73222;41.866;12.462;2023-12-07T13:11:32;10.00;;;7.50;;
43756;SDS011;73222;41.866;12.462;2023-12-07T13:13:58;11.32;;;7.82;;
43756;SDS011;73222;41.866;12.462;2023-12-07T13:16:24;10.38;;;7.95;;
43756;SDS011;73222;41.866;12.462;2023-12-07T13:18:49;11.48;;;8.10;;
43756;SDS011;73222;41.866;12.462;2023-12-07T13:21:14;11.30;;;7.55;;
43756;SDS011;73222;41.866;12.462;2023-12-07T13:23:40;13.57;;;8.20;;
43756;SDS011;73222;41.866;12.462;2023-12-07T13:26:06;11.43;;;7.68;;
43756;SDS011;73222;41.866;12.462;2023-12-07T13:28:31;8.77;;;7.25;;
43756;SDS011;73222;41.866;12.462;2023-12-07T13:30:57;10.30;;;6.65;;
43756;SDS011;73222;41.866;12.462;2023-12-07T13:33:22;9.85;;;6.90;;
43756;SDS011;73222;41.866;12.462;2023-12-07T13:35:48;9.90;;;7.30;;
43756;SDS011;73222;41.866;12.462;2023-12-07T13:38:14;9.55;;;6.45;;
43756;SDS011;73222;41.866;12.462;2023-12-07T13:40:39;11.52;;;7.25;;
43756;SDS011;73222;41.866;12.462;2023-12-07T13:43:05;9.23;;;6.43;;
43756;SDS011;73222;41.866;12.462;2023-12-07T13:45:31;11.18;;;9.05;;
43756;SDS011;73222;41.866;12.462;2023-12-07T13:47:57;8.20;;;6.30;;
43756;SDS011;73222;41.866;12.462;2023-12-07T13:50:23;8.75;;;6.65;;
43756;SDS011;73222;41.866;12.462;2023-12-07T13:52:49;9.60;;;7.00;;
43756;SDS011;73222;41.866;12.462;2023-12-07T13:55:14;9.38;;;7.22;;
43756;SDS011;73222;41.866;12.462;2023-12-07T13:57:40;10.25;;;7.00;;
43756;SDS011;73222;41.866;12.462;2023-12-07T14:00:06;9.32;;;7.68;;
43756;SDS011;73222;41.866;12.462;2023-12-07T14:02:31;9.30;;;6.30;;
43756;SDS011;73222;41.866;12.462;2023-12-07T14:04:58;12.93;;;6.75;;
43756;SDS011;73222;41.866;12.462;2023-12-07T14:07:23;6.57;;;5.00;;
43756;SDS011;73222;41.866;12.462;2023-12-07T14:09:50;7.85;;;4.55;;
43756;SDS011;73222;41.866;12.462;2023-12-07T14:12:17;5.75;;;3.45;;
43756;SDS011;73222;41.866;12.462;2023-12-07T14:14:46;5.15;;;3.10;;
43756;SDS011;73222;41.866;12.462;2023-12-07T14:17:12;4.40;;;3.13;;
43756;SDS011;73222;41.866;12.462;2023-12-07T14:19:38;5.28;;;3.50;;
43756;SDS011;73222;41.866;12.462;2023-12-07T14:22:04;4.85;;;3.50;;